createdAt,value
2023-01-27T00:00:25.113Z,96059.72
2023-01-27T00:02:51.806Z,96055.63
2023-01-27T00:05:18.425Z,96056.16
2023-01-27T00:07:48.186Z,96060.84
2023-01-27T00:10:15.988Z,96062.97
2023-01-27T00:13:01.828Z,96053.34
2023-01-27T00:15:28.594Z,96057.53
2023-01-27T00:17:55.100Z,96055.63
2023-01-27T00:20:39.980Z,96056.47
2023-01-27T00:23:25.199Z,96049.34
2023-01-27T00:25:58.828Z,96040.56
2023-01-27T00:28:25.603Z,96052.19
2023-01-27T00:30:55.268Z,96055.94
2023-01-27T00:33:30.813Z,96052.50
2023-01-27T00:36:05.179Z,96059.41
2023-01-27T00:38:33.010Z,96059.00
2023-01-27T00:41:18.072Z,96053.22
2023-01-27T00:43:44.595Z,96050.38
2023-01-27T00:46:11.119Z,96043.28
2023-01-27T00:48:37.698Z,96040.25
2023-01-27T00:51:04.292Z,96047.34
2023-01-27T00:53:31.306Z,96045.59
2023-01-27T00:56:00.759Z,96045.69
2023-01-27T00:58:27.705Z,96046.31
2023-01-27T01:00:55.023Z,96040.34
2023-01-27T01:03:21.910Z,96038.78
2023-01-27T01:05:48.895Z,96046.63
2023-01-27T01:08:15.431Z,96050.81
2023-01-27T01:10:42.145Z,96054.28
2023-01-27T01:13:10.198Z,96052.50
2023-01-27T01:15:37.067Z,96046.53
2023-01-27T01:18:04.532Z,96048.09
2023-01-27T01:20:31.104Z,96053.66
2023-01-27T01:22:57.682Z,96044.66
2023-01-27T01:25:24.145Z,96049.34
2023-01-27T01:27:50.685Z,96054.59
2023-01-27T01:30:17.459Z,96044.75
2023-01-27T01:32:43.964Z,96046.81
2023-01-27T01:35:10.479Z,96044.53
2023-01-27T01:37:37.025Z,96049.22
2023-01-27T01:40:03.574Z,96044.28
2023-01-27T01:42:48.769Z,96038.63
2023-01-27T01:45:36.762Z,96049.28
2023-01-27T01:48:05.884Z,96050.22
2023-01-27T01:50:33.523Z,96044.19
2023-01-27T01:53:01.980Z,96039.47
2023-01-27T01:55:29.040Z,96038.44
2023-01-27T01:57:55.584Z,96045.03
2023-01-27T02:00:22.242Z,96041.16
2023-01-27T02:02:49.981Z,96041.69
2023-01-27T02:05:16.509Z,96040.66
2023-01-27T02:07:45.781Z,96038.03
2023-01-27T02:10:12.807Z,96030.09
2023-01-27T02:12:39.546Z,96031.88
2023-01-27T02:15:06.532Z,96029.66
2023-01-27T02:17:33.077Z,96027.16
2023-01-27T02:20:11.953Z,96031.34
2023-01-27T02:22:57.197Z,96026.13
2023-01-27T02:25:34.064Z,96026.22
2023-01-27T02:28:01.106Z,96026.50
2023-01-27T02:30:27.648Z,96024.84
2023-01-27T02:32:54.188Z,96020.69
2023-01-27T02:35:22.959Z,96017.19
2023-01-27T02:37:51.089Z,96009.88
2023-01-27T02:40:18.650Z,96007.16
2023-01-27T02:42:45.172Z,96016.06
2023-01-27T02:45:12.034Z,96013.75
2023-01-27T02:47:38.827Z,96010.72
2023-01-27T02:50:05.519Z,96013.44
2023-01-27T02:56:28.631Z,96005.69
2023-01-27T02:58:56.348Z,96000.69
2023-01-27T03:01:24.396Z,96004.66
2023-01-27T03:03:51.516Z,96001.50
2023-01-27T03:06:18.275Z,95994.00
2023-01-27T03:08:44.835Z,96002.97
2023-01-27T03:11:11.735Z,95994.50
2023-01-27T03:13:38.692Z,95990.00
2023-01-27T03:16:24.788Z,95993.34
2023-01-27T03:18:53.845Z,95989.69
2023-01-27T03:21:20.600Z,95986.97
2023-01-27T03:23:49.271Z,95980.47
2023-01-27T03:26:15.907Z,95976.94
2023-01-27T03:28:42.497Z,95981.34
2023-01-27T03:31:19.953Z,95976.09
2023-01-27T03:33:47.765Z,95970.88
2023-01-27T03:36:33.835Z,95972.97
2023-01-27T03:39:18.922Z,95972.13
2023-01-27T03:42:04.079Z,95967.72
2023-01-27T03:44:48.983Z,95966.69
2023-01-27T03:47:15.549Z,95965.44
2023-01-27T03:49:42.069Z,95962.00
2023-01-27T03:52:08.612Z,95965.44
2023-01-27T03:54:35.088Z,95959.44
2023-01-27T03:57:06.567Z,95963.97
2023-01-27T03:59:33.273Z,95949.09
2023-01-27T04:02:19.664Z,95957.06
2023-01-27T04:05:04.467Z,95959.88
2023-01-27T04:07:31.021Z,95955.81
2023-01-27T04:09:57.606Z,95946.59
2023-01-27T04:12:24.222Z,95946.59
2023-01-27T04:14:50.816Z,95955.38
2023-01-27T04:17:18.271Z,95942.41
2023-01-27T04:19:45.017Z,95946.72
2023-01-27T04:22:12.501Z,95964.38
2023-01-27T04:24:39.137Z,95956.94
2023-01-27T04:27:07.092Z,95946.59
2023-01-27T04:29:35.030Z,95960.41
2023-01-27T04:32:01.958Z,95951.16
2023-01-27T04:34:28.440Z,95948.88
2023-01-27T04:36:55.723Z,95949.09
2023-01-27T04:39:22.609Z,95957.88
2023-01-27T04:41:49.830Z,95958.09
2023-01-27T04:44:16.582Z,95969.25
2023-01-27T04:46:43.086Z,95961.63
2023-01-27T04:49:09.834Z,95975.63
2023-01-27T04:51:36.353Z,95968.63
2023-01-27T04:54:03.959Z,95969.69
2023-01-27T04:56:32.134Z,95977.53
2023-01-27T04:59:00.045Z,95976.88
2023-01-27T05:01:26.955Z,95976.22
2023-01-27T05:03:53.749Z,95980.94
2023-01-27T05:06:20.590Z,95979.97
2023-01-27T05:08:47.626Z,95982.59
2023-01-27T05:11:14.296Z,95984.38
2023-01-27T05:13:41.073Z,95982.41
2023-01-27T05:16:09.069Z,95979.69
2023-01-27T05:18:35.771Z,95979.69
2023-01-27T05:21:02.703Z,95984.59
2023-01-27T05:23:35.512Z,95985.53
2023-01-27T05:26:03.251Z,95984.81
2023-01-27T05:28:29.788Z,95984.72
2023-01-27T05:31:03.266Z,95973.31
2023-01-27T05:33:30.195Z,95979.38
2023-01-27T05:36:01.252Z,95979.38
2023-01-27T05:38:28.028Z,95982.09
2023-01-27T05:40:55.363Z,95980.22
2023-01-27T05:43:21.870Z,95972.41
2023-01-27T05:45:48.438Z,95964.56
2023-01-27T05:48:14.956Z,95966.31
2023-01-27T05:50:41.456Z,95977.53
2023-01-27T05:53:07.992Z,95986.19
2023-01-27T05:55:34.524Z,95985.63
2023-01-27T05:58:01.126Z,95980.03
2023-01-27T06:00:27.682Z,95984.22
2023-01-27T06:02:54.298Z,95987.88
2023-01-27T06:05:20.953Z,95991.41
2023-01-27T06:07:47.468Z,95990.47
2023-01-27T06:10:14.295Z,95991.50
2023-01-27T06:12:40.838Z,95985.16
2023-01-27T06:15:07.624Z,95989.53
2023-01-27T06:17:34.191Z,95991.31
2023-01-27T06:20:00.693Z,95981.72
2023-01-27T06:22:27.242Z,95986.81
2023-01-27T06:24:53.808Z,95997.19
2023-01-27T06:27:20.343Z,95996.53
2023-01-27T06:29:46.841Z,95991.84
2023-01-27T06:32:13.362Z,96005.94
2023-01-27T06:34:40.058Z,95999.91
2023-01-27T06:37:06.625Z,95997.28
2023-01-27T06:39:33.151Z,95993.81
2023-01-27T06:41:59.644Z,95998.22
2023-01-27T06:44:26.197Z,95992.22
2023-01-27T06:46:53.605Z,95984.41
2023-01-27T06:49:20.127Z,96000.28
2023-01-27T06:51:46.602Z,96000.50
2023-01-27T06:54:13.173Z,95996.94
2023-01-27T06:56:39.725Z,95996.75
2023-01-27T06:59:06.365Z,95987.75
2023-01-27T07:01:32.920Z,95986.72
2023-01-27T07:03:59.491Z,95990.91
2023-01-27T07:06:25.971Z,95987.38
2023-01-27T07:08:54.719Z,95990.81
2023-01-27T07:11:22.997Z,95996.69
2023-01-27T07:13:49.563Z,95990.31
2023-01-27T07:16:16.204Z,95990.31
2023-01-27T07:18:42.781Z,95991.13
2023-01-27T07:21:09.308Z,95997.41
2023-01-27T07:23:35.897Z,95995.81
2023-01-27T07:26:05.841Z,95995.09
2023-01-27T07:28:39.227Z,96008.06
2023-01-27T07:31:05.821Z,96002.09
2023-01-27T07:33:32.410Z,96003.88
2023-01-27T07:35:58.931Z,96002.19
2023-01-27T07:38:25.482Z,96007.22
2023-01-27T07:40:52.039Z,96006.28
2023-01-27T07:43:18.640Z,95999.06
2023-01-27T07:45:48.960Z,96009.03
2023-01-27T07:48:16.578Z,96011.72
2023-01-27T07:50:43.104Z,96011.72
2023-01-27T07:53:10.424Z,96014.16
2023-01-27T07:55:36.902Z,96019.94
2023-01-27T07:58:03.498Z,96013.72
2023-01-27T08:00:30.365Z,96020.44
2023-01-27T08:02:57.440Z,96009.78
2023-01-27T08:05:24.133Z,96023.28
2023-01-27T08:07:51.402Z,96017.94
2023-01-27T08:10:21.295Z,96018.28
2023-01-27T08:12:47.899Z,96017.94
2023-01-27T08:15:16.592Z,96020.44
2023-01-27T08:17:44.910Z,96017.44
2023-01-27T08:20:11.905Z,96023.19
2023-01-27T08:22:38.561Z,96023.72
2023-01-27T08:25:05.367Z,96021.72
2023-01-27T08:27:31.869Z,96033.22
2023-01-27T08:29:58.363Z,96033.44
2023-01-27T08:32:24.893Z,96031.56
2023-01-27T08:34:51.404Z,96033.34
2023-01-27T08:37:17.915Z,96032.78
2023-01-27T08:39:44.441Z,96035.53
2023-01-27T08:42:10.929Z,96043.50
2023-01-27T08:44:37.447Z,96038.47
2023-01-27T08:47:04.021Z,96042.03
2023-01-27T08:49:30.540Z,96048.31
2023-01-27T08:51:57.049Z,96045.16
2023-01-27T08:54:23.556Z,96046.72
2023-01-27T08:56:50.047Z,96044.66
2023-01-27T08:59:16.611Z,96043.91
2023-01-27T09:01:43.188Z,96039.94
2023-01-27T09:04:09.806Z,96043.28
2023-01-27T09:06:36.372Z,96041.19
2023-01-27T09:09:11.177Z,96047.34
2023-01-27T09:11:42.530Z,96047.78
2023-01-27T09:14:09.149Z,96054.47
2023-01-27T09:16:35.874Z,96058.78
2023-01-27T09:19:02.490Z,96059.59
2023-01-27T09:21:29.686Z,96062.34
2023-01-27T09:23:57.183Z,96066.75
2023-01-27T09:26:23.788Z,96059.81
2023-01-27T09:28:50.358Z,96071.75
2023-01-27T09:31:17.072Z,96069.84
2023-01-27T09:33:44.104Z,96069.66
2023-01-27T09:36:15.717Z,96083.69
2023-01-27T09:38:46.070Z,96082.66
2023-01-27T09:41:24.533Z,96072.78
2023-01-27T09:44:09.230Z,96067.88
2023-01-27T09:46:35.726Z,96064.81
2023-01-27T09:49:18.931Z,96062.31
2023-01-27T09:51:48.458Z,96061.38
2023-01-27T09:54:20.823Z,96060.44
2023-01-27T09:56:47.797Z,96063.28
2023-01-27T09:59:20.065Z,96046.81
2023-01-27T10:01:46.635Z,96053.28
2023-01-27T10:04:31.685Z,96046.81
2023-01-27T10:06:58.264Z,96048.41
2023-01-27T10:09:24.807Z,96046.31
2023-01-27T10:11:58.996Z,96042.84
2023-01-27T10:14:34.822Z,96031.63
2023-01-27T10:17:19.432Z,96022.81
2023-01-27T10:19:59.171Z,96025.31
2023-01-27T10:22:42.992Z,96015.19
2023-01-27T10:25:18.559Z,96013.69
2023-01-27T10:27:48.427Z,96014.72
2023-01-27T10:30:15.710Z,96003.53
2023-01-27T10:32:42.459Z,96000.44
2023-01-27T10:35:17.262Z,96011.16
2023-01-27T10:37:46.624Z,96007.88
2023-01-27T10:40:32.047Z,95996.94
2023-01-27T10:43:06.464Z,96000.59
2023-01-27T10:45:45.731Z,95997.44
2023-01-27T10:48:26.128Z,95993.09
2023-01-27T10:51:11.398Z,95984.66
2023-01-27T10:53:58.507Z,95993.41
2023-01-27T10:56:37.282Z,95988.38
2023-01-27T10:59:06.948Z,95984.78
2023-01-27T11:01:36.291Z,95978.97
2023-01-27T11:04:08.733Z,95972.16
2023-01-27T11:06:37.313Z,95980.75
2023-01-27T11:09:32.993Z,95969.41
2023-01-27T11:12:04.713Z,95971.31
2023-01-27T11:14:34.395Z,95972.28
2023-01-27T11:17:13.004Z,95963.22
2023-01-27T11:19:58.410Z,95972.72
2023-01-27T11:22:31.096Z,95963.22
2023-01-27T11:24:57.576Z,95961.53
2023-01-27T11:27:56.327Z,95956.88
2023-01-27T11:30:27.542Z,95958.19
2023-01-27T11:33:04.150Z,95951.88
2023-01-27T11:35:30.747Z,95952.25
2023-01-27T11:38:09.806Z,95956.75
2023-01-27T11:40:41.616Z,95946.25
2023-01-27T11:43:11.850Z,95936.19
2023-01-27T11:45:39.098Z,95937.16
2023-01-27T11:48:07.993Z,95945.19
2023-01-27T11:50:35.752Z,95940.50
2023-01-27T11:53:12.992Z,95938.50
2023-01-27T11:56:00.639Z,95931.28
2023-01-27T11:58:39.664Z,95931.78
2023-01-27T12:01:10.141Z,95930.28
2023-01-27T12:03:48.959Z,95930.28
2023-01-27T12:06:23.977Z,95926.44
2023-01-27T12:08:50.514Z,95929.50
2023-01-27T12:11:21.648Z,95924.94
2023-01-27T12:13:49.307Z,95922.97
2023-01-27T12:16:16.180Z,95920.44
2023-01-27T12:18:51.563Z,95924.00
2023-01-27T12:21:18.565Z,95910.16
2023-01-27T12:23:48.127Z,95908.97
2023-01-27T12:26:14.933Z,95907.81
2023-01-27T12:28:43.184Z,95919.03
2023-01-27T12:31:22.980Z,95910.44
2023-01-27T12:33:58.486Z,95902.88
2023-01-27T12:36:25.060Z,95901.34
2023-01-27T12:38:52.728Z,95902.50
2023-01-27T12:41:24.256Z,95897.72
2023-01-27T12:43:52.297Z,95905.38
2023-01-27T12:46:21.735Z,95906.25
2023-01-27T12:48:50.175Z,95890.88
2023-01-27T12:51:21.493Z,95898.28
2023-01-27T12:53:48.848Z,95900.44
2023-01-27T12:56:20.855Z,95906.16
2023-01-27T12:58:58.248Z,95899.91
2023-01-27T13:01:25.002Z,95892.50
2023-01-27T13:03:59.918Z,95898.94
2023-01-27T13:06:31.573Z,95896.56
2023-01-27T13:08:58.285Z,95896.59
2023-01-27T13:11:37.465Z,95892.91
2023-01-27T13:14:07.305Z,95896.63
2023-01-27T13:16:34.007Z,95890.88
2023-01-27T13:19:01.372Z,95891.38
2023-01-27T13:21:32.650Z,95899.00
2023-01-27T13:24:00.389Z,95901.19
2023-01-27T13:26:32.047Z,95899.00
2023-01-27T13:29:02.385Z,95893.41
2023-01-27T13:31:47.697Z,95896.06
2023-01-27T13:34:14.287Z,95891.38
2023-01-27T13:36:53.476Z,95899.00
2023-01-27T13:39:29.181Z,95895.44
2023-01-27T13:42:04.731Z,95891.28
2023-01-27T13:44:40.547Z,95893.88
2023-01-27T13:47:16.730Z,95897.94
2023-01-27T13:49:50.328Z,95902.34
2023-01-27T13:52:16.881Z,95895.56
2023-01-27T13:54:43.573Z,95902.38
2023-01-27T13:57:10.116Z,95894.38
2023-01-27T13:59:54.647Z,95899.00
2023-01-27T14:02:41.147Z,95908.06
2023-01-27T14:05:25.839Z,95905.66
2023-01-27T14:08:15.694Z,95903.66
2023-01-27T14:10:59.892Z,95908.78
2023-01-27T14:13:55.022Z,95909.72
2023-01-27T14:16:21.538Z,95910.09
2023-01-27T14:19:08.321Z,95919.13
2023-01-27T14:21:43.203Z,95914.84
2023-01-27T14:24:34.456Z,95904.25
2023-01-27T14:27:17.734Z,95904.97
2023-01-27T14:30:01.556Z,95903.66
2023-01-27T14:32:48.333Z,95903.53
2023-01-27T14:35:14.800Z,95910.16
2023-01-27T14:38:00.106Z,95911.38
2023-01-27T14:40:29.797Z,95916.72
2023-01-27T14:42:56.275Z,95913.97
2023-01-27T14:45:30.623Z,95914.22
2023-01-27T14:48:02.630Z,95913.53
2023-01-27T14:50:52.156Z,95922.31
2023-01-27T14:53:26.398Z,95919.69
2023-01-27T14:55:58.472Z,95922.75
2023-01-27T14:58:43.502Z,95934.03
2023-01-27T15:01:16.257Z,95930.03
2023-01-27T15:03:50.851Z,95929.41
2023-01-27T15:06:20.379Z,95936.06
2023-01-27T15:08:55.726Z,95929.34
2023-01-27T15:11:28.116Z,95930.34
2023-01-27T15:14:09.671Z,95935.28
2023-01-27T15:17:01.808Z,95928.75
2023-01-27T15:19:40.025Z,95942.28
2023-01-27T15:22:06.563Z,95943.47
2023-01-27T15:24:35.826Z,95951.31
2023-01-27T15:27:02.806Z,95955.53
2023-01-27T15:29:30.932Z,95953.03
2023-01-27T15:32:10.834Z,95961.00
2023-01-27T15:34:37.566Z,95962.56
2023-01-27T15:37:13.392Z,95969.69
2023-01-27T15:40:06.691Z,95969.84
2023-01-27T15:42:52.497Z,95964.59
2023-01-27T15:45:45.773Z,95964.13
2023-01-27T15:48:14.912Z,95967.91
2023-01-27T15:50:46.270Z,95971.25
2023-01-27T15:53:16.807Z,95971.72
2023-01-27T15:55:50.984Z,95970.34
2023-01-27T15:58:20.531Z,95971.31
2023-01-27T16:00:54.252Z,95978.22
2023-01-27T16:03:29.893Z,95973.09
2023-01-27T16:06:03.444Z,95974.50
2023-01-27T16:08:32.321Z,95986.81
2023-01-27T16:11:17.739Z,95987.50
2023-01-27T16:13:45.369Z,95993.97
2023-01-27T16:16:17.819Z,95993.34
2023-01-27T16:18:47.824Z,95994.28
2023-01-27T16:21:32.773Z,95994.22
2023-01-27T16:24:03.585Z,96001.78
2023-01-27T16:26:40.169Z,96003.88
2023-01-27T16:29:12.898Z,96000.13
2023-01-27T16:31:39.595Z,95998.25
2023-01-27T16:34:14.954Z,95998.34
2023-01-27T16:36:41.684Z,96002.22
2023-01-27T16:39:17.351Z,96004.28
2023-01-27T16:41:51.313Z,96000.63
2023-01-27T16:44:22.697Z,96006.09
2023-01-27T16:47:15.082Z,96010.47
2023-01-27T16:49:43.294Z,96006.91
2023-01-27T16:52:16.583Z,96004.88
2023-01-27T16:54:44.183Z,96012.84
2023-01-27T16:57:31.032Z,96019.59
2023-01-27T17:00:00.281Z,96024.38
2023-01-27T17:02:28.645Z,96021.66
2023-01-27T17:04:56.354Z,96018.91
2023-01-27T17:07:22.929Z,96020.94
2023-01-27T17:09:50.782Z,96030.06
2023-01-27T17:12:34.615Z,96037.28
2023-01-27T17:15:02.796Z,96029.84
2023-01-27T17:17:32.198Z,96036.06
2023-01-27T17:20:02.076Z,96034.25
2023-01-27T17:22:36.362Z,96042.41
2023-01-27T17:25:06.679Z,96038.22
2023-01-27T17:27:35.324Z,96041.78
2023-01-27T17:30:05.189Z,96042.19
2023-01-27T17:32:34.076Z,96042.19
2023-01-27T17:35:03.275Z,96039.69
2023-01-27T17:37:30.464Z,96042.00
2023-01-27T17:40:03.741Z,96039.88
2023-01-27T17:42:33.735Z,96047.66
2023-01-27T17:45:20.174Z,96044.81
2023-01-27T17:47:47.225Z,96041.25
2023-01-27T17:50:18.243Z,96052.16
2023-01-27T17:52:52.216Z,96049.63
2023-01-27T17:55:23.253Z,96050.72
2023-01-27T17:57:50.972Z,96050.50
2023-01-27T18:00:43.917Z,96055.94
2023-01-27T18:03:17.266Z,96060.22
2023-01-27T18:05:45.432Z,96060.44
2023-01-27T18:08:12.028Z,96061.38
2023-01-27T18:10:39.919Z,96055.44
2023-01-27T18:13:18.395Z,96067.56
2023-01-27T18:16:23.770Z,96058.03
2023-01-27T18:18:50.540Z,96068.50
2023-01-27T18:21:24.521Z,96073.75
2023-01-27T18:23:54.622Z,96074.91
2023-01-27T18:26:27.391Z,96083.25
2023-01-27T18:28:59.248Z,96088.72
2023-01-27T18:31:46.180Z,96086.84
2023-01-27T18:34:12.705Z,96085.28
2023-01-27T18:36:51.369Z,96088.09
2023-01-27T18:39:37.338Z,96084.75
2023-01-27T18:42:10.135Z,96089.75
2023-01-27T18:44:37.281Z,96088.09
2023-01-27T18:47:24.502Z,96087.13
2023-01-27T18:49:51.877Z,96093.41
2023-01-27T18:52:18.470Z,96091.66
2023-01-27T18:54:44.999Z,96090.09
2023-01-27T18:57:11.483Z,96089.16
2023-01-27T18:59:37.990Z,96097.19
2023-01-27T19:02:05.821Z,96094.47
2023-01-27T19:04:32.602Z,96096.91
2023-01-27T19:07:00.338Z,96084.63
2023-01-27T19:09:26.844Z,96089.97
2023-01-27T19:11:56.773Z,96090.81
2023-01-27T19:14:23.271Z,96089.16
2023-01-27T19:16:49.841Z,96087.56
2023-01-27T19:19:16.347Z,96086.00
2023-01-27T19:21:42.876Z,96084.84
2023-01-27T19:24:10.503Z,96080.44
2023-01-27T19:26:37.124Z,96083.91
2023-01-27T19:29:03.679Z,96083.16
2023-01-27T19:31:30.227Z,96083.06
2023-01-27T19:33:57.810Z,96086.44
2023-01-27T19:36:29.868Z,96084.97
2023-01-27T19:39:01.305Z,96083.28
2023-01-27T19:41:28.297Z,96084.00
2023-01-27T19:43:54.872Z,96084.97
2023-01-27T19:46:22.187Z,96086.00
2023-01-27T19:48:49.445Z,96081.81
2023-01-27T19:51:17.449Z,96084.53
2023-01-27T19:53:43.981Z,96089.47
2023-01-27T19:56:11.967Z,96083.69
2023-01-27T19:58:38.565Z,96091.75
2023-01-27T20:01:05.161Z,96089.13
2023-01-27T20:03:31.675Z,96093.84
2023-01-27T20:05:58.197Z,96091.41
2023-01-27T20:08:24.747Z,96087.84
2023-01-27T20:10:51.405Z,96091.41
2023-01-27T20:13:19.526Z,96095.28
2023-01-27T20:15:46.990Z,96090.25
2023-01-27T20:18:17.228Z,96093.63
2023-01-27T20:20:44.385Z,96105.72
2023-01-27T20:23:14.858Z,96098.69
2023-01-27T20:25:41.478Z,96104.97
2023-01-27T20:28:09.451Z,96110.56
2023-01-27T20:30:36.110Z,96123.56
2023-01-27T20:33:03.676Z,96118.22
2023-01-27T20:35:30.630Z,96121.91
2023-01-27T20:37:57.403Z,96128.91
2023-01-27T20:40:25.000Z,96134.13
2023-01-27T20:42:52.174Z,96137.66
2023-01-27T20:45:19.056Z,96137.97
2023-01-27T20:47:52.757Z,96136.56
2023-01-27T20:50:19.958Z,96136.47
2023-01-27T20:52:48.413Z,96137.16
2023-01-27T20:55:16.154Z,96124.66
2023-01-27T20:57:42.875Z,96141.47
2023-01-27T21:00:15.257Z,96137.94
2023-01-27T21:02:41.762Z,96137.94
2023-01-27T21:05:08.549Z,96153.31
2023-01-27T21:07:35.045Z,96152.38
2023-01-27T21:10:01.555Z,96145.00
2023-01-27T21:12:29.525Z,96146.50
2023-01-27T21:14:56.604Z,96154.72
2023-01-27T21:17:24.008Z,96152.63
2023-01-27T21:19:50.569Z,96158.41
2023-01-27T21:22:17.136Z,96159.19
2023-01-27T21:24:43.710Z,96158.88
2023-01-27T21:27:10.232Z,96156.47
2023-01-27T21:29:36.831Z,96163.66
2023-01-27T21:32:03.433Z,96164.03
2023-01-27T21:34:30.031Z,96164.03
2023-01-27T21:36:56.789Z,96167.59
2023-01-27T21:39:23.608Z,96159.84
2023-01-27T21:41:52.825Z,96164.31
2023-01-27T21:44:40.960Z,96158.16
2023-01-27T21:47:08.590Z,96158.81
2023-01-27T21:49:58.457Z,96169.06
2023-01-27T21:52:26.122Z,96170.19
2023-01-27T21:54:52.757Z,96166.44
2023-01-27T21:57:19.502Z,96172.19
2023-01-27T21:59:46.064Z,96176.50
2023-01-27T22:02:16.119Z,96173.06
2023-01-27T22:04:43.162Z,96184.34
2023-01-27T22:07:11.430Z,96179.47
2023-01-27T22:09:38.061Z,96179.09
2023-01-27T22:12:05.503Z,96182.94
2023-01-27T22:14:32.085Z,96177.63
2023-01-27T22:16:58.663Z,96186.84
2023-01-27T22:19:25.190Z,96186.22
2023-01-27T22:21:51.866Z,96177.16
2023-01-27T22:24:18.570Z,96184.53
2023-01-27T22:26:45.164Z,96181.22
2023-01-27T22:29:11.660Z,96189.22
2023-01-27T22:31:40.276Z,96189.69
2023-01-27T22:34:06.977Z,96177.56
2023-01-27T22:36:33.624Z,96181.09
2023-01-27T22:39:00.140Z,96182.78
2023-01-27T22:41:26.642Z,96175.78
2023-01-27T22:43:53.202Z,96176.09
2023-01-27T22:46:19.705Z,96167.38
2023-01-27T22:48:49.500Z,96170.97
2023-01-27T22:51:16.506Z,96174.69
2023-01-27T22:53:43.034Z,96168.50
2023-01-27T22:56:09.692Z,96166.84
2023-01-27T22:58:36.270Z,96161.72
2023-01-27T23:01:06.354Z,96171.78
2023-01-27T23:03:32.933Z,96162.38
2023-01-27T23:06:03.452Z,96161.44
2023-01-27T23:08:31.823Z,96164.91
2023-01-27T23:11:00.390Z,96154.56
2023-01-27T23:13:27.156Z,96161.97
2023-01-27T23:15:53.713Z,96165.34
2023-01-27T23:18:20.287Z,96156.78
2023-01-27T23:20:46.807Z,96152.09
2023-01-27T23:23:15.005Z,96153.13
2023-01-27T23:25:45.128Z,96159.16
2023-01-27T23:28:12.557Z,96149.28
2023-01-27T23:30:42.671Z,96158.34
2023-01-27T23:33:09.296Z,96151.63
2023-01-27T23:35:35.787Z,96148.91
2023-01-27T23:38:02.877Z,96151.16
2023-01-27T23:40:29.381Z,96141.91
2023-01-27T23:42:55.911Z,96139.56
2023-01-27T23:45:22.452Z,96141.63
2023-01-27T23:47:48.941Z,96137.34
2023-01-27T23:50:15.662Z,96141.53
2023-01-27T23:52:42.161Z,96139.75
2023-01-27T23:55:08.841Z,96132.69
2023-01-27T23:57:35.345Z,96143.03
